Costa Magica — IBQQ — position and weather

sailwx.info

Track history (hours):
 
Tides and Currents Weather Stations Pressure Air Temp Water Temp Dewpoint Dewpoint Depression Visibility Wind Speed Wind Dir Waves Ship Positions

Costa Magica

Last reported at 2017-Jul-22 11:43 UTC. Time now 2017-Jul-22 18:28 UTC.
Position N 62°42' W 004°28'.

Type: Ship. MMSI: 247113300.

Date/timePositionNaut miles runAvg speedWind from/ knotsBaromVisibWave heightAir tempDewpointWater temp
2017-Jul-22 11:43N 62°42' W 004°28'417.0
2017-Jul-22 11:30N 62°39' W 004°25'917.3
2017-Jul-22 11:00N 62°30' W 004°19'1314.0
2017-Jul-22 10:04N 62°18' W 004°10'417.7
2017-Jul-22 09:51N 62°14' W 004°07'617.7
2017-Jul-22 09:30N 62°08' W 004°03'917.8
2017-Jul-22 09:00N 62°00' W 003°56'918.1
2017-Jul-22 08:30N 61°52' W 003°50'918.3
2017-Jul-22 08:00N 61°43' W 003°44'918.1
2017-Jul-22 07:30N 61°34' W 003°38'918.1
2017-Jul-22 07:00N 61°26' W 003°32'918.0
2017-Jul-22 06:29N 61°17' W 003°25'917.9
2017-Jul-22 06:00N 61°09' W 003°19'1017.5
2017-Jul-22 05:25N 60°59' W 003°13'46817.2
2017-Jul-21 02:12N 54°27' E 004°45'417.1
2017-Jul-21 01:59N 54°23' E 004°49'917.1
2017-Jul-21 01:29N 54°16' E 004°58'817.2
2017-Jul-21 01:00N 54°10' E 005°05'917.0
2017-Jul-21 00:30N 54°01' E 005°05'917.6
2017-Jul-21 00:00N 53°53' E 004°59'917.4
2017-Jul-20 23:28N 53°44' E 004°54'1616.9
2017-Jul-20 22:33N 53°30' E 004°45'116.1
2017-Jul-20 22:28N 53°28' E 004°44'715.9
2017-Jul-20 22:00N 53°22' E 004°39'815.8
2017-Jul-20 21:30N 53°14' E 004°33'815.8
2017-Jul-20 21:00N 53°08' E 004°26'815.7
2017-Jul-20 20:30N 53°01' E 004°21'815.7
2017-Jul-20 20:00N 52°54' E 004°15'815.5
2017-Jul-20 19:30N 52°47' E 004°10'612.9
2017-Jul-20 19:00N 52°40' E 004°11'815.5
2017-Jul-20 18:30N 52°34' E 004°19'612.4
2017-Jul-20 18:00N 52°29' E 004°26'611.4
2017-Jul-20 17:30N 52°28' E 004°35'1 2.1
2017-Jul-20 17:01N 52°28' E 004°36'3 5.8
2017-Jul-20 16:30N 52°27' E 004°41'4 8.1
2017-Jul-20 16:01N 52°26' E 004°47'4 7.9
2017-Jul-20 15:30N 52°24' E 004°53'2 3.3
2017-Jul-20 15:00N 52°23' E 004°55'0 0.0
2017-Jul-20 14:00N 52°23' E 004°55'0 0.0
2017-Jul-20 13:30N 52°23' E 004°55'0 0.0
2017-Jul-20 13:00N 52°23' E 004°55'0 0.0
2017-Jul-20 12:30N 52°23' E 004°55'0 0.0
2017-Jul-20 12:00N 52°23' E 004°55'0 0.0
2017-Jul-20 11:30N 52°23' E 004°55'0 0.0
2017-Jul-20 11:00N 52°23' E 004°55'0 0.0
2017-Jul-20 10:30N 52°23' E 004°55'0 0.0
2017-Jul-20 10:00N 52°23' E 004°55'0 0.0
2017-Jul-20 09:30N 52°23' E 004°55'0 0.0
2017-Jul-20 09:00N 52°23' E 004°55'0 0.0
2017-Jul-20 08:30N 52°23' E 004°55'0 0.0
2017-Jul-20 08:00N 52°23' E 004°55'0 0.0
2017-Jul-20 07:30N 52°23' E 004°55'0 0.0
2017-Jul-20 07:00N 52°23' E 004°55'0 0.0
2017-Jul-20 06:30N 52°23' E 004°55'0 0.0
2017-Jul-20 06:00N 52°23' E 004°55'0 0.0
2017-Jul-20 05:30N 52°23' E 004°55'0 0.0
2017-Jul-20 05:00N 52°23' E 004°55'0 0.0
2017-Jul-20 04:31N 52°23' E 004°55'0 0.6
2017-Jul-20 04:01N 52°23' E 004°55'3 5.4
2017-Jul-20 03:31N 52°25' E 004°52'4 8.4
2017-Jul-20 03:01N 52°26' E 004°45'4 8.3
2017-Jul-20 02:30N 52°28' E 004°39'2 3.5
2017-Jul-20 02:00N 52°28' E 004°37'2 3.7
2017-Jul-20 01:31N 52°28' E 004°34'612.9
2017-Jul-20 01:00N 52°29' E 004°23'815.3
2017-Jul-20 00:30N 52°30' E 004°11'917.6
2017-Jul-20 00:00N 52°38' E 004°04'1019.3
2017-Jul-19 23:30N 52°47' E 003°59'918.1
2017-Jul-19 23:00N 52°56' E 003°60'817.0
2017-Jul-19 22:30N 53°02' E 004°10'917.7
2017-Jul-19 22:00N 53°08' E 004°21'918.2
2017-Jul-19 21:30N 53°16' E 004°28'816.6
2017-Jul-19 21:00N 53°24' E 004°34'1019.6
2017-Jul-19 20:30N 53°31' E 004°44'1020.3
2017-Jul-19 20:00N 53°34' E 005°01'1019.1
2017-Jul-19 19:30N 53°37' E 005°16'1220.3
2017-Jul-19 18:55N 53°40' E 005°35'820.0
2017-Jul-19 18:30N 53°43' E 005°49'6818.5
2017-Jul-19 14:51N 53°58' E 007°40'914.8
2017-Jul-19 14:15N 53°52' E 007°52'313.4
2017-Jul-19 14:00N 53°52' E 007°57'816.9
2017-Jul-19 13:30N 53°47' E 008°09'816.1
2017-Jul-19 13:00N 53°42' E 008°20'816.1
2017-Jul-19 12:30N 53°37' E 008°30'4 7.0
2017-Jul-19 11:59N 53°34' E 008°33'0 0.0
2017-Jul-19 11:29N 53°34' E 008°33'0 0.0
2017-Jul-19 10:59N 53°34' E 008°33'0 0.0
2017-Jul-19 10:29N 53°34' E 008°33'0 0.0
2017-Jul-19 09:59N 53°34' E 008°33'0 0.0
2017-Jul-19 09:29N 53°34' E 008°33'0 0.0
2017-Jul-19 08:59N 53°34' E 008°33'0 0.0
2017-Jul-19 08:29N 53°34' E 008°33'0 0.0
2017-Jul-19 07:59N 53°34' E 008°33'0 0.0
2017-Jul-19 07:29N 53°34' E 008°33'0 0.0
2017-Jul-19 06:59N 53°34' E 008°33'0 0.0
2017-Jul-19 06:29N 53°34' E 008°33'0 0.0
2017-Jul-19 06:00N 53°34' E 008°33'0 0.0
2017-Jul-19 05:30N 53°34' E 008°33'0 0.1
2017-Jul-19 05:00N 53°34' E 008°33'3 6.2
2017-Jul-19 04:31N 53°36' E 008°30'612.4
2017-Jul-19 04:00N 53°40' E 008°22'714.7
2017-Jul-19 03:30N 53°45' E 008°13'816.4
2017-Jul-19 03:00N 53°51' E 008°03'815.7
2017-Jul-19 02:31N 53°52' E 007°50'510.7
2017-Jul-19 02:00N 53°54' E 007°41'510.6
2017-Jul-19 01:30N 53°59' E 007°37'510.7
2017-Jul-19 01:00N 54°03' E 007°32'510.5
2017-Jul-19 00:30N 54°08' E 007°28'1110.7
2017-Jul-18 23:30N 54°18' E 007°23'711.1
2017-Jul-18 22:52N 54°25' E 007°18'411.2
2017-Jul-18 22:30N 54°28' E 007°14'711.2
2017-Jul-18 21:53N 54°33' E 007°06'411.2
2017-Jul-18 21:30N 54°37' E 007°02'510.8
2017-Jul-18 21:00N 54°41' E 006°57'510.8
2017-Jul-18 20:30N 54°46' E 006°51'510.9
2017-Jul-18 20:00N 54°50' E 006°46'511.0
2017-Jul-18 19:30N 54°54' E 006°40'510.6
2017-Jul-18 19:00N 54°59' E 006°36'610.9
2017-Jul-18 18:30N 55°04' E 006°33'510.9
2017-Jul-18 18:00N 55°09' E 006°29'510.2
2017-Jul-18 17:30N 55°13' E 006°23'511.1
2017-Jul-18 17:00N 55°18' E 006°28'510.9
2017-Jul-18 16:30N 55°23' E 006°31'611.4
2017-Jul-18 15:59N 55°27' E 006°22'611.5
2017-Jul-18 15:29N 55°32' E 006°19'711.6
2017-Jul-18 14:55N 55°38' E 006°15'1011.4
2017-Jul-18 14:00N 55°48' E 006°10'811.3
2017-Jul-18 13:17N 55°56' E 006°05'123 9.2
2017-Jul-17 23:55N 57°57' E 005°33'1110.7
2017-Jul-17 22:55N 58°08' E 005°28'410.8
2017-Jul-17 22:30N 58°12' E 005°27'510.8
2017-Jul-17 22:00N 58°16' E 005°20'510.9
2017-Jul-17 21:30N 58°20' E 005°12'510.8
2017-Jul-17 21:00N 58°26' E 005°12'510.8
2017-Jul-17 20:30N 58°31' E 005°13'510.9
2017-Jul-17 20:00N 58°36' E 005°15'510.9
2017-Jul-17 19:30N 58°41' E 005°19'611.1
2017-Jul-17 19:00N 58°46' E 005°23'510.8
2017-Jul-17 18:30N 58°51' E 005°29'612.1
2017-Jul-17 18:00N 58°56' E 005°33'713.4
2017-Jul-17 17:30N 59°03' E 005°35'612.0
2017-Jul-17 17:00N 58°59' E 005°43'1 1.0
2017-Jul-17 16:29N 58°58' E 005°44'0 0.0
2017-Jul-17 15:59N 58°58' E 005°44'0 0.0
2017-Jul-17 15:29N 58°58' E 005°44'0 0.0
2017-Jul-17 14:56N 58°58' E 005°44'0 0.0
2017-Jul-17 14:29N 58°58' E 005°44'0 0.0
2017-Jul-17 13:59N 58°58' E 005°44'0 0.0
2017-Jul-17 13:29N 58°58' E 005°44'0 0.0
2017-Jul-17 12:59N 58°58' E 005°44'0 0.0
2017-Jul-17 12:29N 58°58' E 005°44'0 0.0
2017-Jul-17 11:59N 58°58' E 005°44'0 0.0
2017-Jul-17 11:29N 58°58' E 005°44'0 0.0
2017-Jul-17 10:59N 58°58' E 005°44'0 0.0
2017-Jul-17 10:29N 58°58' E 005°44'0 0.0
2017-Jul-17 09:59N 58°58' E 005°44'0 0.0
2017-Jul-17 09:29N 58°58' E 005°44'0 0.0
2017-Jul-17 08:59N 58°58' E 005°44'0 0.0
2017-Jul-17 08:29N 58°58' E 005°44'0 0.0
2017-Jul-17 07:59N 58°58' E 005°44'0 0.0
2017-Jul-17 07:29N 58°58' E 005°44'0 0.0
2017-Jul-17 06:59N 58°58' E 005°44'0 0.0
2017-Jul-17 06:29N 58°58' E 005°44'1 1.5
2017-Jul-17 06:00N 58°59' E 005°43'612.3
2017-Jul-17 05:30N 59°03' E 005°34'612.7
2017-Jul-17 05:00N 59°07' E 005°24'713.9
2017-Jul-17 04:30N 59°06' E 005°10'713.3
2017-Jul-17 04:01N 59°08' E 004°58'713.9
2017-Jul-17 03:30N 59°14' E 004°49'8617.3
2017-Jul-16 22:32N 60°39' E 004°21'118.1
2017-Jul-16 22:30N 60°39' E 004°21'917.7
2017-Jul-16 22:00N 60°48' E 004°28'817.2
2017-Jul-16 21:31N 60°54' E 004°40'917.8
2017-Jul-16 21:00N 61°01' E 004°51'919.1
2017-Jul-16 20:31N 61°06' E 005°08'1019.1
2017-Jul-16 20:01N 61°04' E 005°27'1019.0
2017-Jul-16 19:30N 61°08' E 005°45'1019.0
2017-Jul-16 19:00N 61°08' E 006°05'1019.2
2017-Jul-16 18:30N 61°06' E 006°25'815.8
2017-Jul-16 18:00N 61°11' E 006°38'816.3
2017-Jul-16 17:31N 61°08' E 006°53'816.7
2017-Jul-16 17:01N 61°01' E 007°02'714.4
2017-Jul-16 16:30N 60°55' E 007°10'4 6.5
2017-Jul-16 15:58N 60°52' E 007°07'0 0.0
2017-Jul-16 15:28N 60°52' E 007°07'0 0.0
2017-Jul-16 14:58N 60°52' E 007°07'0 0.0
2017-Jul-16 14:28N 60°52' E 007°07'0 0.0
2017-Jul-16 13:58N 60°52' E 007°07'0 0.0
2017-Jul-16 13:28N 60°52' E 007°07'0 0.0
2017-Jul-16 12:58N 60°52' E 007°07'0 0.0
2017-Jul-16 12:28N 60°52' E 007°07'0 0.0
2017-Jul-16 11:58N 60°52' E 007°07'0 0.0
2017-Jul-16 11:28N 60°52' E 007°07'0 0.0
2017-Jul-16 10:58N 60°52' E 007°07'0 0.0
2017-Jul-16 10:28N 60°52' E 007°07'0 0.0
2017-Jul-16 09:58N 60°52' E 007°07'0 0.0
2017-Jul-16 09:28N 60°52' E 007°07'0 0.0
2017-Jul-16 08:58N 60°52' E 007°07'0 0.0
2017-Jul-16 08:28N 60°52' E 007°07'0 0.0
2017-Jul-16 07:58N 60°52' E 007°07'0 0.0
2017-Jul-16 07:28N 60°52' E 007°07'0 0.0
2017-Jul-16 06:58N 60°52' E 007°07'0 0.0
2017-Jul-16 06:28N 60°52' E 007°07'2 4.0
2017-Jul-16 06:00N 60°53' E 007°09'713.3
2017-Jul-16 05:30N 60°60' E 007°04'816.0
2017-Jul-16 05:00N 61°07' E 006°56'918.6
2017-Jul-16 04:30N 61°11' E 006°39'816.3
2017-Jul-16 03:59N 61°06' E 006°25'1019.5
2017-Jul-16 03:30N 61°08' E 006°05'1019.7
2017-Jul-16 03:00N 61°08' E 005°45'918.7
2017-Jul-16 02:30N 61°04' E 005°27'817.1
2017-Jul-16 02:00N 61°07' E 005°11'715.2
2017-Jul-16 01:30N 61°12' E 005°00'816.8
2017-Jul-16 01:00N 61°15' E 004°44'1018.5
2017-Jul-16 00:30N 61°18' E 004°25'1019.6
2017-Jul-15 23:59N 61°28' E 004°23'1019.8
2017-Jul-15 23:30N 61°38' E 004°24'918.8
2017-Jul-15 23:00N 61°47' E 004°27'917.4
2017-Jul-15 22:30N 61°55' E 004°33'917.4
2017-Jul-15 22:00N 62°03' E 004°41'713.9
2017-Jul-15 21:29N 62°09' E 004°49'612.1
2017-Jul-15 21:00N 62°14' E 004°57'917.1
2017-Jul-15 20:30N 62°20' E 005°10'1019.8
2017-Jul-15 20:00N 62°25' E 005°28'1019.9
2017-Jul-15 19:30N 62°27' E 005°49'815.7
2017-Jul-15 19:00N 62°29' E 006°06'5 9.6
2017-Jul-15 18:30N 62°33' E 006°10'611.3
2017-Jul-15 18:00N 62°39' E 006°10'715.2
2017-Jul-15 17:30N 62°38' E 006°26'1019.2
2017-Jul-15 17:00N 62°40' E 006°46'918.0
2017-Jul-15 16:30N 62°40' E 007°06'917.9
2017-Jul-15 16:00N 62°36' E 007°23'814.0
2017-Jul-15 15:27N 62°34' E 007°40'1 0.3
2017-Jul-15 11:53N 62°34' E 007°42'0 0.9
2017-Jul-15 11:30N 62°34' E 007°42'0 0.1
2017-Jul-15 10:56N 62°34' E 007°42'0 0.0
2017-Jul-15 09:50N 62°34' E 007°42'0 0.0
2017-Jul-15 09:26N 62°34' E 007°42'0 0.0
2017-Jul-15 07:35N 62°34' E 007°42'0 0.0
2017-Jul-15 07:23N 62°34' E 007°42'0 0.0
2017-Jul-15 06:56N 62°34' E 007°42'0 0.0
2017-Jul-15 05:59N 62°34' E 007°42'0 0.0
2017-Jul-15 05:29N 62°34' E 007°42'0 0.3
2017-Jul-15 05:00N 62°34' E 007°42'711.9
2017-Jul-15 04:26N 62°34' E 007°27'716.9
2017-Jul-15 04:00N 62°38' E 007°14'815.4
2017-Jul-15 03:30N 62°42' E 007°00'612.5
2017-Jul-15 03:00N 62°48' E 006°58'510.3
2017-Jul-15 02:31N 62°53' E 006°54'612.4
2017-Jul-15 02:00N 62°57' E 006°44'612.0
2017-Jul-15 01:30N 62°58' E 006°31'713.6
2017-Jul-15 01:00N 62°60' E 006°16'713.7
2017-Jul-15 00:30N 63°00' E 006°01'714.0
2017-Jul-15 00:01N 62°60' E 005°46'25 9.6
2017-Jul-14 21:28N 62°40' E 005°15'613.2
2017-Jul-14 21:00N 62°34' E 005°22'612.3
2017-Jul-14 20:30N 62°31' E 005°32'713.2
2017-Jul-14 20:01N 62°29' E 005°46'713.6
2017-Jul-14 19:30N 62°26' E 005°60'612.8
2017-Jul-14 19:00N 62°23' E 006°11'713.4
2017-Jul-14 18:30N 62°25' E 006°26'917.9
2017-Jul-14 18:00N 62°27' E 006°43'714.7
2017-Jul-14 17:30N 62°23' E 006°55'815.3
2017-Jul-14 17:00N 62°15' E 007°01'815.4
2017-Jul-14 16:30N 62°08' E 006°57'2 0.9
2017-Jul-14 14:30N 62°06' E 006°55'611.0
2017-Jul-14 14:00N 62°07' E 007°07'2 0.9
2017-Jul-14 11:28N 62°06' E 007°12'0 0.0
2017-Jul-14 11:00N 62°06' E 007°12'0 0.0
2017-Jul-14 10:30N 62°06' E 007°12'0 0.0
2017-Jul-14 10:00N 62°06' E 007°12'0 0.0
2017-Jul-14 09:30N 62°06' E 007°12'0 0.0
2017-Jul-14 09:00N 62°06' E 007°12'0 0.0
2017-Jul-14 08:30N 62°06' E 007°12'0 0.0
2017-Jul-14 08:00N 62°06' E 007°12'0 0.0
2017-Jul-14 07:30N 62°06' E 007°12'0 0.0
2017-Jul-14 07:00N 62°06' E 007°12'0 0.0
2017-Jul-14 06:30N 62°06' E 007°12'0 0.0
2017-Jul-14 06:00N 62°06' E 007°12'0 0.0
2017-Jul-14 05:30N 62°06' E 007°12'0 0.6
2017-Jul-14 05:00N 62°06' E 007°11'3 5.6
2017-Jul-14 04:29N 62°06' E 007°05'4 8.6
2017-Jul-14 04:00N 62°08' E 006°58'816.0
2017-Jul-14 03:30N 62°16' E 007°01'816.4
2017-Jul-14 03:00N 62°24' E 006°56'815.7
2017-Jul-14 02:30N 62°27' E 006°41'816.7
2017-Jul-14 02:00N 62°24' E 006°24'815.7
2017-Jul-14 01:30N 62°23' E 006°07'714.6
2017-Jul-14 01:00N 62°27' E 005°53'714.5
2017-Jul-14 00:30N 62°30' E 005°39'714.6
2017-Jul-14 00:00N 62°27' E 005°24'714.9
2017-Jul-13 23:30N 62°24' E 005°10'714.9
2017-Jul-13 23:00N 62°18' E 004°60'714.5
2017-Jul-13 22:30N 62°12' E 004°50'713.4
2017-Jul-13 22:00N 62°06' E 004°45'815.7
2017-Jul-13 21:30N 61°59' E 004°38'918.4
2017-Jul-13 21:00N 61°50' E 004°31'2317.8
2017-Jul-13 19:41N 61°28' E 004°19'318.0
2017-Jul-13 19:30N 61°25' E 004°19'918.2
2017-Jul-13 19:00N 61°15' E 004°19'918.2
2017-Jul-13 18:30N 61°06' E 004°19'917.8
2017-Jul-13 18:00N 60°58' E 004°21'917.7
2017-Jul-13 17:30N 60°49' E 004°27'917.8
2017-Jul-13 17:00N 60°44' E 004°43'917.9
2017-Jul-13 16:30N 60°37' E 004°53'918.3
2017-Jul-13 16:00N 60°29' E 004°60'714.7
2017-Jul-13 15:30N 60°23' E 005°10'4 7.7
2017-Jul-13 14:58N 60°23' E 005°18'0 0.0
2017-Jul-13 14:28N 60°23' E 005°18'0 0.0
2017-Jul-13 13:58N 60°23' E 005°18'0 0.0
2017-Jul-13 13:28N 60°23' E 005°18'0 0.0
2017-Jul-13 12:58N 60°23' E 005°18'0 0.0
2017-Jul-13 12:28N 60°23' E 005°18'0 0.0
2017-Jul-13 11:58N 60°23' E 005°18'0 0.0
2017-Jul-13 11:28N 60°23' E 005°18'0 0.0
2017-Jul-13 10:58N 60°23' E 005°18'0 0.0
2017-Jul-13 10:28N 60°23' E 005°18'0 0.0
2017-Jul-13 09:58N 60°23' E 005°18'0 0.0
2017-Jul-13 09:28N 60°23' E 005°18'0 0.0
2017-Jul-13 08:58N 60°23' E 005°18'0 0.0
2017-Jul-13 08:28N 60°23' E 005°18'0 0.0
2017-Jul-13 07:58N 60°23' E 005°18'0 0.0
2017-Jul-13 07:28N 60°23' E 005°18'0 0.0
2017-Jul-13 06:58N 60°23' E 005°18'0 0.0
2017-Jul-13 06:28N 60°23' E 005°18'0 0.0
2017-Jul-13 05:58N 60°23' E 005°18'0 0.0
2017-Jul-13 05:30N 60°23' E 005°18'2 3.9
2017-Jul-13 05:00N 60°24' E 005°15'510.4
2017-Jul-13 04:30N 60°25' E 005°04'815.8
2017-Jul-13 04:00N 60°32' E 004°57'917.0
2017-Jul-13 03:30N 60°40' E 004°50'612.8
2017-Jul-13 03:00N 60°44' E 004°41'4 7.4
2017-Jul-13 02:30N 60°43' E 004°34'815.6
2017-Jul-13 02:00N 60°36' E 004°28'10516.5
2017-Jul-12 19:36N 58°51' E 004°17'219.4
2017-Jul-12 19:30N 58°49' E 004°17'1019.2
2017-Jul-12 19:00N 58°40' E 004°22'1019.5
2017-Jul-12 18:30N 58°30' E 004°25'1119.2
2017-Jul-12 17:56N 58°19' E 004°30'  
Track history (hours):
 
Tides and Currents Weather Stations Pressure Air Temp Water Temp Dewpoint Dewpoint Depression Visibility Wind Speed Wind Dir Waves Ship Positions

Costa Magica

Last reported at 2017-Jul-22 11:43 UTC. Time now 2017-Jul-22 18:28 UTC.
Position N 62°42' W 004°28'.

Type: Ship. MMSI: 247113300.

Date/timePositionNaut miles runAvg speedWind from/ knotsBaromVisibWave heightAir tempDewpointWater temp
2017-Jul-22 11:43N 62°42' W 004°28'417.0
2017-Jul-22 11:30N 62°39' W 004°25'917.3
2017-Jul-22 11:00N 62°30' W 004°19'1314.0
2017-Jul-22 10:04N 62°18' W 004°10'417.7
2017-Jul-22 09:51N 62°14' W 004°07'617.7
2017-Jul-22 09:30N 62°08' W 004°03'917.8
2017-Jul-22 09:00N 62°00' W 003°56'918.1
2017-Jul-22 08:30N 61°52' W 003°50'918.3
2017-Jul-22 08:00N 61°43' W 003°44'918.1
2017-Jul-22 07:30N 61°34' W 003°38'918.1
2017-Jul-22 07:00N 61°26' W 003°32'918.0
2017-Jul-22 06:29N 61°17' W 003°25'917.9
2017-Jul-22 06:00N 61°09' W 003°19'1017.5
2017-Jul-22 05:25N 60°59' W 003°13'46817.2
2017-Jul-21 02:12N 54°27' E 004°45'417.1
2017-Jul-21 01:59N 54°23' E 004°49'917.1
2017-Jul-21 01:29N 54°16' E 004°58'817.2
2017-Jul-21 01:00N 54°10' E 005°05'917.0
2017-Jul-21 00:30N 54°01' E 005°05'917.6
2017-Jul-21 00:00N 53°53' E 004°59'917.4
2017-Jul-20 23:28N 53°44' E 004°54'1616.9
2017-Jul-20 22:33N 53°30' E 004°45'116.1
2017-Jul-20 22:28N 53°28' E 004°44'715.9
2017-Jul-20 22:00N 53°22' E 004°39'815.8
2017-Jul-20 21:30N 53°14' E 004°33'815.8
2017-Jul-20 21:00N 53°08' E 004°26'815.7
2017-Jul-20 20:30N 53°01' E 004°21'815.7
2017-Jul-20 20:00N 52°54' E 004°15'815.5
2017-Jul-20 19:30N 52°47' E 004°10'612.9
2017-Jul-20 19:00N 52°40' E 004°11'815.5
2017-Jul-20 18:30N 52°34' E 004°19'612.4
2017-Jul-20 18:00N 52°29' E 004°26'611.4
2017-Jul-20 17:30N 52°28' E 004°35'1 2.1
2017-Jul-20 17:01N 52°28' E 004°36'3 5.8
2017-Jul-20 16:30N 52°27' E 004°41'4 8.1
2017-Jul-20 16:01N 52°26' E 004°47'4 7.9
2017-Jul-20 15:30N 52°24' E 004°53'2 3.3
2017-Jul-20 15:00N 52°23' E 004°55'0 0.0
2017-Jul-20 14:00N 52°23' E 004°55'0 0.0
2017-Jul-20 13:30N 52°23' E 004°55'0 0.0
2017-Jul-20 13:00N 52°23' E 004°55'0 0.0
2017-Jul-20 12:30N 52°23' E 004°55'0 0.0
2017-Jul-20 12:00N 52°23' E 004°55'0 0.0
2017-Jul-20 11:30N 52°23' E 004°55'0 0.0
2017-Jul-20 11:00N 52°23' E 004°55'0 0.0
2017-Jul-20 10:30N 52°23' E 004°55'0 0.0
2017-Jul-20 10:00N 52°23' E 004°55'0 0.0
2017-Jul-20 09:30N 52°23' E 004°55'0 0.0
2017-Jul-20 09:00N 52°23' E 004°55'0 0.0
2017-Jul-20 08:30N 52°23' E 004°55'0 0.0
2017-Jul-20 08:00N 52°23' E 004°55'0 0.0
2017-Jul-20 07:30N 52°23' E 004°55'0 0.0
2017-Jul-20 07:00N 52°23' E 004°55'0 0.0
2017-Jul-20 06:30N 52°23' E 004°55'0 0.0
2017-Jul-20 06:00N 52°23' E 004°55'0 0.0
2017-Jul-20 05:30N 52°23' E 004°55'0 0.0
2017-Jul-20 05:00N 52°23' E 004°55'0 0.0
2017-Jul-20 04:31N 52°23' E 004°55'0 0.6
2017-Jul-20 04:01N 52°23' E 004°55'3 5.4
2017-Jul-20 03:31N 52°25' E 004°52'4 8.4
2017-Jul-20 03:01N 52°26' E 004°45'4 8.3
2017-Jul-20 02:30N 52°28' E 004°39'2 3.5
2017-Jul-20 02:00N 52°28' E 004°37'2 3.7
2017-Jul-20 01:31N 52°28' E 004°34'612.9
2017-Jul-20 01:00N 52°29' E 004°23'815.3
2017-Jul-20 00:30N 52°30' E 004°11'917.6
2017-Jul-20 00:00N 52°38' E 004°04'1019.3
2017-Jul-19 23:30N 52°47' E 003°59'918.1
2017-Jul-19 23:00N 52°56' E 003°60'817.0
2017-Jul-19 22:30N 53°02' E 004°10'917.7
2017-Jul-19 22:00N 53°08' E 004°21'918.2
2017-Jul-19 21:30N 53°16' E 004°28'816.6
2017-Jul-19 21:00N 53°24' E 004°34'1019.6
2017-Jul-19 20:30N 53°31' E 004°44'1020.3
2017-Jul-19 20:00N 53°34' E 005°01'1019.1
2017-Jul-19 19:30N 53°37' E 005°16'1220.3
2017-Jul-19 18:55N 53°40' E 005°35'820.0
2017-Jul-19 18:30N 53°43' E 005°49'6818.5
2017-Jul-19 14:51N 53°58' E 007°40'914.8
2017-Jul-19 14:15N 53°52' E 007°52'313.4
2017-Jul-19 14:00N 53°52' E 007°57'816.9
2017-Jul-19 13:30N 53°47' E 008°09'816.1
2017-Jul-19 13:00N 53°42' E 008°20'816.1
2017-Jul-19 12:30N 53°37' E 008°30'4 7.0
2017-Jul-19 11:59N 53°34' E 008°33'0 0.0
2017-Jul-19 11:29N 53°34' E 008°33'0 0.0
2017-Jul-19 10:59N 53°34' E 008°33'0 0.0
2017-Jul-19 10:29N 53°34' E 008°33'0 0.0
2017-Jul-19 09:59N 53°34' E 008°33'0 0.0
2017-Jul-19 09:29N 53°34' E 008°33'0 0.0
2017-Jul-19 08:59N 53°34' E 008°33'0 0.0
2017-Jul-19 08:29N 53°34' E 008°33'0 0.0
2017-Jul-19 07:59N 53°34' E 008°33'0 0.0
2017-Jul-19 07:29N 53°34' E 008°33'0 0.0
2017-Jul-19 06:59N 53°34' E 008°33'0 0.0
2017-Jul-19 06:29N 53°34' E 008°33'0 0.0
2017-Jul-19 06:00N 53°34' E 008°33'0 0.0
2017-Jul-19 05:30N 53°34' E 008°33'0 0.1
2017-Jul-19 05:00N 53°34' E 008°33'3 6.2
2017-Jul-19 04:31N 53°36' E 008°30'612.4
2017-Jul-19 04:00N 53°40' E 008°22'714.7
2017-Jul-19 03:30N 53°45' E 008°13'816.4
2017-Jul-19 03:00N 53°51' E 008°03'815.7
2017-Jul-19 02:31N 53°52' E 007°50'510.7
2017-Jul-19 02:00N 53°54' E 007°41'510.6
2017-Jul-19 01:30N 53°59' E 007°37'510.7
2017-Jul-19 01:00N 54°03' E 007°32'510.5
2017-Jul-19 00:30N 54°08' E 007°28'1110.7
2017-Jul-18 23:30N 54°18' E 007°23'711.1
2017-Jul-18 22:52N 54°25' E 007°18'411.2
2017-Jul-18 22:30N 54°28' E 007°14'711.2
2017-Jul-18 21:53N 54°33' E 007°06'411.2
2017-Jul-18 21:30N 54°37' E 007°02'510.8
2017-Jul-18 21:00N 54°41' E 006°57'510.8
2017-Jul-18 20:30N 54°46' E 006°51'510.9
2017-Jul-18 20:00N 54°50' E 006°46'511.0
2017-Jul-18 19:30N 54°54' E 006°40'510.6
2017-Jul-18 19:00N 54°59' E 006°36'610.9
2017-Jul-18 18:30N 55°04' E 006°33'510.9
2017-Jul-18 18:00N 55°09' E 006°29'510.2
2017-Jul-18 17:30N 55°13' E 006°23'511.1
2017-Jul-18 17:00N 55°18' E 006°28'510.9
2017-Jul-18 16:30N 55°23' E 006°31'611.4
2017-Jul-18 15:59N 55°27' E 006°22'611.5
2017-Jul-18 15:29N 55°32' E 006°19'711.6
2017-Jul-18 14:55N 55°38' E 006°15'1011.4
2017-Jul-18 14:00N 55°48' E 006°10'811.3
2017-Jul-18 13:17N 55°56' E 006°05'123 9.2
2017-Jul-17 23:55N 57°57' E 005°33'1110.7
2017-Jul-17 22:55N 58°08' E 005°28'410.8
2017-Jul-17 22:30N 58°12' E 005°27'510.8
2017-Jul-17 22:00N 58°16' E 005°20'510.9
2017-Jul-17 21:30N 58°20' E 005°12'510.8
2017-Jul-17 21:00N 58°26' E 005°12'510.8
2017-Jul-17 20:30N 58°31' E 005°13'510.9
2017-Jul-17 20:00N 58°36' E 005°15'510.9
2017-Jul-17 19:30N 58°41' E 005°19'611.1
2017-Jul-17 19:00N 58°46' E 005°23'510.8
2017-Jul-17 18:30N 58°51' E 005°29'612.1
2017-Jul-17 18:00N 58°56' E 005°33'713.4
2017-Jul-17 17:30N 59°03' E 005°35'612.0
2017-Jul-17 17:00N 58°59' E 005°43'1 1.0
2017-Jul-17 16:29N 58°58' E 005°44'0 0.0
2017-Jul-17 15:59N 58°58' E 005°44'0 0.0
2017-Jul-17 15:29N 58°58' E 005°44'0 0.0
2017-Jul-17 14:56N 58°58' E 005°44'0 0.0
2017-Jul-17 14:29N 58°58' E 005°44'0 0.0
2017-Jul-17 13:59N 58°58' E 005°44'0 0.0
2017-Jul-17 13:29N 58°58' E 005°44'0 0.0
2017-Jul-17 12:59N 58°58' E 005°44'0 0.0
2017-Jul-17 12:29N 58°58' E 005°44'0 0.0
2017-Jul-17 11:59N 58°58' E 005°44'0 0.0
2017-Jul-17 11:29N 58°58' E 005°44'0 0.0
2017-Jul-17 10:59N 58°58' E 005°44'0 0.0
2017-Jul-17 10:29N 58°58' E 005°44'0 0.0
2017-Jul-17 09:59N 58°58' E 005°44'0 0.0
2017-Jul-17 09:29N 58°58' E 005°44'0 0.0
2017-Jul-17 08:59N 58°58' E 005°44'0 0.0
2017-Jul-17 08:29N 58°58' E 005°44'0 0.0
2017-Jul-17 07:59N 58°58' E 005°44'0 0.0
2017-Jul-17 07:29N 58°58' E 005°44'0 0.0
2017-Jul-17 06:59N 58°58' E 005°44'0 0.0
2017-Jul-17 06:29N 58°58' E 005°44'1 1.5
2017-Jul-17 06:00N 58°59' E 005°43'612.3
2017-Jul-17 05:30N 59°03' E 005°34'612.7
2017-Jul-17 05:00N 59°07' E 005°24'713.9
2017-Jul-17 04:30N 59°06' E 005°10'713.3
2017-Jul-17 04:01N 59°08' E 004°58'713.9
2017-Jul-17 03:30N 59°14' E 004°49'8617.3
2017-Jul-16 22:32N 60°39' E 004°21'118.1
2017-Jul-16 22:30N 60°39' E 004°21'917.7
2017-Jul-16 22:00N 60°48' E 004°28'817.2
2017-Jul-16 21:31N 60°54' E 004°40'917.8
2017-Jul-16 21:00N 61°01' E 004°51'919.1
2017-Jul-16 20:31N 61°06' E 005°08'1019.1
2017-Jul-16 20:01N 61°04' E 005°27'1019.0
2017-Jul-16 19:30N 61°08' E 005°45'1019.0
2017-Jul-16 19:00N 61°08' E 006°05'1019.2
2017-Jul-16 18:30N 61°06' E 006°25'815.8
2017-Jul-16 18:00N 61°11' E 006°38'816.3
2017-Jul-16 17:31N 61°08' E 006°53'816.7
2017-Jul-16 17:01N 61°01' E 007°02'714.4
2017-Jul-16 16:30N 60°55' E 007°10'4 6.5
2017-Jul-16 15:58N 60°52' E 007°07'0 0.0
2017-Jul-16 15:28N 60°52' E 007°07'0 0.0
2017-Jul-16 14:58N 60°52' E 007°07'0 0.0
2017-Jul-16 14:28N 60°52' E 007°07'0 0.0
2017-Jul-16 13:58N 60°52' E 007°07'0 0.0
2017-Jul-16 13:28N 60°52' E 007°07'0 0.0
2017-Jul-16 12:58N 60°52' E 007°07'0 0.0
2017-Jul-16 12:28N 60°52' E 007°07'0 0.0
2017-Jul-16 11:58N 60°52' E 007°07'0 0.0
2017-Jul-16 11:28N 60°52' E 007°07'0 0.0
2017-Jul-16 10:58N 60°52' E 007°07'0 0.0
2017-Jul-16 10:28N 60°52' E 007°07'0 0.0
2017-Jul-16 09:58N 60°52' E 007°07'0 0.0
2017-Jul-16 09:28N 60°52' E 007°07'0 0.0
2017-Jul-16 08:58N 60°52' E 007°07'0 0.0
2017-Jul-16 08:28N 60°52' E 007°07'0 0.0
2017-Jul-16 07:58N 60°52' E 007°07'0 0.0
2017-Jul-16 07:28N 60°52' E 007°07'0 0.0
2017-Jul-16 06:58N 60°52' E 007°07'0 0.0
2017-Jul-16 06:28N 60°52' E 007°07'2 4.0
2017-Jul-16 06:00N 60°53' E 007°09'713.3
2017-Jul-16 05:30N 60°60' E 007°04'816.0
2017-Jul-16 05:00N 61°07' E 006°56'918.6
2017-Jul-16 04:30N 61°11' E 006°39'816.3
2017-Jul-16 03:59N 61°06' E 006°25'1019.5
2017-Jul-16 03:30N 61°08' E 006°05'1019.7
2017-Jul-16 03:00N 61°08' E 005°45'918.7
2017-Jul-16 02:30N 61°04' E 005°27'817.1
2017-Jul-16 02:00N 61°07' E 005°11'715.2
2017-Jul-16 01:30N 61°12' E 005°00'816.8
2017-Jul-16 01:00N 61°15' E 004°44'1018.5
2017-Jul-16 00:30N 61°18' E 004°25'1019.6
2017-Jul-15 23:59N 61°28' E 004°23'1019.8
2017-Jul-15 23:30N 61°38' E 004°24'918.8
2017-Jul-15 23:00N 61°47' E 004°27'917.4
2017-Jul-15 22:30N 61°55' E 004°33'917.4
2017-Jul-15 22:00N 62°03' E 004°41'713.9
2017-Jul-15 21:29N 62°09' E 004°49'612.1
2017-Jul-15 21:00N 62°14' E 004°57'917.1
2017-Jul-15 20:30N 62°20' E 005°10'1019.8
2017-Jul-15 20:00N 62°25' E 005°28'1019.9
2017-Jul-15 19:30N 62°27' E 005°49'815.7
2017-Jul-15 19:00N 62°29' E 006°06'5 9.6
2017-Jul-15 18:30N 62°33' E 006°10'611.3
2017-Jul-15 18:00N 62°39' E 006°10'715.2
2017-Jul-15 17:30N 62°38' E 006°26'1019.2
2017-Jul-15 17:00N 62°40' E 006°46'918.0
2017-Jul-15 16:30N 62°40' E 007°06'917.9
2017-Jul-15 16:00N 62°36' E 007°23'814.0
2017-Jul-15 15:27N 62°34' E 007°40'1 0.3
2017-Jul-15 11:53N 62°34' E 007°42'0 0.9
2017-Jul-15 11:30N 62°34' E 007°42'0 0.1
2017-Jul-15 10:56N 62°34' E 007°42'0 0.0
2017-Jul-15 09:50N 62°34' E 007°42'0 0.0
2017-Jul-15 09:26N 62°34' E 007°42'0 0.0
2017-Jul-15 07:35N 62°34' E 007°42'0 0.0
2017-Jul-15 07:23N 62°34' E 007°42'0 0.0
2017-Jul-15 06:56N 62°34' E 007°42'0 0.0
2017-Jul-15 05:59N 62°34' E 007°42'0 0.0
2017-Jul-15 05:29N 62°34' E 007°42'0 0.3
2017-Jul-15 05:00N 62°34' E 007°42'711.9
2017-Jul-15 04:26N 62°34' E 007°27'716.9
2017-Jul-15 04:00N 62°38' E 007°14'815.4
2017-Jul-15 03:30N 62°42' E 007°00'612.5
2017-Jul-15 03:00N 62°48' E 006°58'510.3
2017-Jul-15 02:31N 62°53' E 006°54'612.4
2017-Jul-15 02:00N 62°57' E 006°44'612.0
2017-Jul-15 01:30N 62°58' E 006°31'713.6
2017-Jul-15 01:00N 62°60' E 006°16'713.7
2017-Jul-15 00:30N 63°00' E 006°01'714.0
2017-Jul-15 00:01N 62°60' E 005°46'25 9.6
2017-Jul-14 21:28N 62°40' E 005°15'613.2
2017-Jul-14 21:00N 62°34' E 005°22'612.3
2017-Jul-14 20:30N 62°31' E 005°32'713.2
2017-Jul-14 20:01N 62°29' E 005°46'713.6
2017-Jul-14 19:30N 62°26' E 005°60'612.8
2017-Jul-14 19:00N 62°23' E 006°11'713.4
2017-Jul-14 18:30N 62°25' E 006°26'917.9
2017-Jul-14 18:00N 62°27' E 006°43'714.7
2017-Jul-14 17:30N 62°23' E 006°55'815.3
2017-Jul-14 17:00N 62°15' E 007°01'815.4
2017-Jul-14 16:30N 62°08' E 006°57'2 0.9
2017-Jul-14 14:30N 62°06' E 006°55'611.0
2017-Jul-14 14:00N 62°07' E 007°07'2 0.9
2017-Jul-14 11:28N 62°06' E 007°12'0 0.0
2017-Jul-14 11:00N 62°06' E 007°12'0 0.0
2017-Jul-14 10:30N 62°06' E 007°12'0 0.0
2017-Jul-14 10:00N 62°06' E 007°12'0 0.0
2017-Jul-14 09:30N 62°06' E 007°12'0 0.0
2017-Jul-14 09:00N 62°06' E 007°12'0 0.0
2017-Jul-14 08:30N 62°06' E 007°12'0 0.0
2017-Jul-14 08:00N 62°06' E 007°12'0 0.0
2017-Jul-14 07:30N 62°06' E 007°12'0 0.0
2017-Jul-14 07:00N 62°06' E 007°12'0 0.0
2017-Jul-14 06:30N 62°06' E 007°12'0 0.0
2017-Jul-14 06:00N 62°06' E 007°12'0 0.0
2017-Jul-14 05:30N 62°06' E 007°12'0 0.6
2017-Jul-14 05:00N 62°06' E 007°11'3 5.6
2017-Jul-14 04:29N 62°06' E 007°05'4 8.6
2017-Jul-14 04:00N 62°08' E 006°58'816.0
2017-Jul-14 03:30N 62°16' E 007°01'816.4
2017-Jul-14 03:00N 62°24' E 006°56'815.7
2017-Jul-14 02:30N 62°27' E 006°41'816.7
2017-Jul-14 02:00N 62°24' E 006°24'815.7
2017-Jul-14 01:30N 62°23' E 006°07'714.6
2017-Jul-14 01:00N 62°27' E 005°53'714.5
2017-Jul-14 00:30N 62°30' E 005°39'714.6
2017-Jul-14 00:00N 62°27' E 005°24'714.9
2017-Jul-13 23:30N 62°24' E 005°10'714.9
2017-Jul-13 23:00N 62°18' E 004°60'714.5
2017-Jul-13 22:30N 62°12' E 004°50'713.4
2017-Jul-13 22:00N 62°06' E 004°45'815.7
2017-Jul-13 21:30N 61°59' E 004°38'918.4
2017-Jul-13 21:00N 61°50' E 004°31'2317.8
2017-Jul-13 19:41N 61°28' E 004°19'318.0
2017-Jul-13 19:30N 61°25' E 004°19'918.2
2017-Jul-13 19:00N 61°15' E 004°19'918.2
2017-Jul-13 18:30N 61°06' E 004°19'917.8
2017-Jul-13 18:00N 60°58' E 004°21'917.7
2017-Jul-13 17:30N 60°49' E 004°27'917.8
2017-Jul-13 17:00N 60°44' E 004°43'917.9
2017-Jul-13 16:30N 60°37' E 004°53'918.3
2017-Jul-13 16:00N 60°29' E 004°60'714.7
2017-Jul-13 15:30N 60°23' E 005°10'4 7.7
2017-Jul-13 14:58N 60°23' E 005°18'0 0.0
2017-Jul-13 14:28N 60°23' E 005°18'0 0.0
2017-Jul-13 13:58N 60°23' E 005°18'0 0.0
2017-Jul-13 13:28N 60°23' E 005°18'0 0.0
2017-Jul-13 12:58N 60°23' E 005°18'0 0.0
2017-Jul-13 12:28N 60°23' E 005°18'0 0.0
2017-Jul-13 11:58N 60°23' E 005°18'0 0.0
2017-Jul-13 11:28N 60°23' E 005°18'0 0.0
2017-Jul-13 10:58N 60°23' E 005°18'0 0.0
2017-Jul-13 10:28N 60°23' E 005°18'0 0.0
2017-Jul-13 09:58N 60°23' E 005°18'0 0.0
2017-Jul-13 09:28N 60°23' E 005°18'0 0.0
2017-Jul-13 08:58N 60°23' E 005°18'0 0.0
2017-Jul-13 08:28N 60°23' E 005°18'0 0.0
2017-Jul-13 07:58N 60°23' E 005°18'0 0.0
2017-Jul-13 07:28N 60°23' E 005°18'0 0.0
2017-Jul-13 06:58N 60°23' E 005°18'0 0.0
2017-Jul-13 06:28N 60°23' E 005°18'0 0.0
2017-Jul-13 05:58N 60°23' E 005°18'0 0.0
2017-Jul-13 05:30N 60°23' E 005°18'2 3.9
2017-Jul-13 05:00N 60°24' E 005°15'510.4
2017-Jul-13 04:30N 60°25' E 005°04'815.8
2017-Jul-13 04:00N 60°32' E 004°57'917.0
2017-Jul-13 03:30N 60°40' E 004°50'612.8
2017-Jul-13 03:00N 60°44' E 004°41'4 7.4
2017-Jul-13 02:30N 60°43' E 004°34'815.6
2017-Jul-13 02:00N 60°36' E 004°28'10516.5
2017-Jul-12 19:36N 58°51' E 004°17'219.4
2017-Jul-12 19:30N 58°49' E 004°17'1019.2
2017-Jul-12 19:00N 58°40' E 004°22'1019.5
2017-Jul-12 18:30N 58°30' E 004°25'1119.2
2017-Jul-12 17:56N 58°19' E 004°30'  

Dump ship's entire track history